LERS/REU METAR and TAF weather

Enter ICAO airport designator
Station Type Date Time Source
LERS METAR 2024/06/14 21:00 UTC NOAA

LERS 142100Z VRB01KT 9999 FEW015 21/20 Q1012


Station Type Date Time Source
LERS Decoded METAR 2024/06/14 21:00 UTC NOAA

Reus / Aeropuerto, Spain (LERS) 41-09N 001-10E 76M
Jun 14, 2024 - 05:00 PM EDT / 2024.06.14 2100 UTC
Wind: Variable at 1 MPH (1 KT):0
Visibility: greater than 7 mile(s):0
Sky conditions: mostly clear
Temperature: 69 F (21 C)
Dew Point: 68 F (20 C)
Relative Humidity: 94%
Pressure (altimeter): 29.88 in. Hg (1012 hPa)
ob: LERS 142100Z VRB01KT 9999 FEW015 21/20 Q1012
cycle: 21

Station Type Date Time Source
LERS TAF 2024/06/14 21:29 UTC NOAA